^^
Saratoga-Weather Station Historical Data
Daily Summary for August 14, 2022 Units:  Both    English   Metric
Daily Weekly Monthly Yearly Custom
  High: Low: Average:
Temperature: 81 °F /  27.2 °C 61.2 °F /  16.2 °C 67.3 °F /  19.6 °C
Dew Point: 56.3 °F /  13.5 °C 50 °F /  10 °C 52.2 °F /  11.2 °C
Humidity: 68% 43% 59%
Wind Speed: 2.9mph /  4.7km/h - 0.4mph /  0.7km/h
Wind Gust: 7mph /  11.3km/h - -
Wind- - ESE
Pressure: 29.8 in /  1010.5 hPa 29.7 in /  1006.4 hPa -
Precipitation: 0 in /  0.0 mm    
Historical Graphs
 
 
Tabular Data for August 14, 2022
Time Temperature Dew Point Pressure Wind Wind Speed Wind Gust Humidity Rainfall Rate (Hourly) solar
00:03 68.4 °F /  20.2 °C 51.6 °F /  10.9 °C 29.8in /  1010.5hPa Calm     55% 0in /  0.0mm 0 W/m2
00:08 68.4 °F /  20.2 °C 51.6 °F /  10.9 °C 29.8in /  1010.5hPa Calm     55% 0in /  0.0mm 0 W/m2
00:13 68.2 °F /  20.1 °C 51.8 °F /  11 °C 29.8in /  1010.5hPa East 0.9mph /  1.4km/h 2mph /  3.2km/h 56% 0in /  0.0mm 0 W/m2
00:18 68 °F /  20 °C 51.8 °F /  11 °C 29.8in /  1010.5hPa East 0.9mph /  1.4km/h 1mph /  1.6km/h 56% 0in /  0.0mm 0 W/m2
00:23 68 °F /  20 °C 51.8 °F /  11 °C 29.8in /  1010.5hPa Calm     56% 0in /  0.0mm 0 W/m2
00:28 67.8 °F /  19.9 °C 51.6 °F /  10.9 °C 29.8in /  1010.5hPa Calm     56% 0in /  0.0mm 0 W/m2
00:33 67.6 °F /  19.8 °C 51.8 °F /  11 °C 29.8in /  1010.5hPa Calm     57% 0in /  0.0mm 0 W/m2
00:38 67.5 °F /  19.7 °C 51.3 °F /  10.7 °C 29.8in /  1010.5hPa Calm     56% 0in /  0.0mm 0 W/m2
00:43 67.3 °F /  19.6 °C 51.4 °F /  10.8 °C 29.8in /  1010.5hPa Calm     57% 0in /  0.0mm 0 W/m2
00:48 67.1 °F /  19.5 °C 51.4 °F /  10.8 °C 29.8in /  1010.5hPa Calm     57% 0in /  0.0mm 0 W/m2
00:53 66.9 °F /  19.4 °C 51.3 °F /  10.7 °C 29.8in /  1010.5hPa Calm     57% 0in /  0.0mm 0 W/m2
00:58 66.7 °F /  19.3 °C 51.1 °F /  10.6 °C 29.8in /  1010.5hPa Calm   1mph /  1.6km/h 57% 0in /  0.0mm 0 W/m2
01:03 66.6 °F /  19.2 °C 51.3 °F /  10.7 °C 29.8in /  1010.5hPa Calm   2mph /  3.2km/h 58% 0in /  0.0mm 0 W/m2
01:08 66.4 °F /  19.1 °C 51.1 °F /  10.6 °C 29.8in /  1010.2hPa Calm     58% 0in /  0.0mm 0 W/m2
01:13 66.4 °F /  19.1 °C 51.1 °F /  10.6 °C 29.8in /  1010.5hPa Calm     58% 0in /  0.0mm 0 W/m2
01:18 66.4 °F /  19.1 °C 51.1 °F /  10.6 °C 29.8in /  1010.2hPa Calm     58% 0in /  0.0mm 0 W/m2
01:23 66.4 °F /  19.1 °C 51.1 °F /  10.6 °C 29.8in /  1010.2hPa Calm     58% 0in /  0.0mm 0 W/m2
01:28 66.2 °F /  19 °C 51.4 °F /  10.8 °C 29.8in /  1010.2hPa Calm   1mph /  1.6km/h 59% 0in /  0.0mm 0 W/m2
01:33 66 °F /  18.9 °C 51.3 °F /  10.7 °C 29.8in /  1010.2hPa Calm   1mph /  1.6km/h 59% 0in /  0.0mm 0 W/m2
01:38 66 °F /  18.9 °C 51.3 °F /  10.7 °C 29.8in /  1010.2hPa Calm     59% 0in /  0.0mm 0 W/m2
01:43 65.8 °F /  18.8 °C 51.1 °F /  10.6 °C 29.8in /  1010.2hPa Calm     59% 0in /  0.0mm 0 W/m2
01:48 65.7 °F /  18.7 °C 51.4 °F /  10.8 °C 29.8in /  1009.8hPa Calm     60% 0in /  0.0mm 0 W/m2
01:53 65.5 °F /  18.6 °C 51.3 °F /  10.7 °C 29.8in /  1009.8hPa Calm     60% 0in /  0.0mm 0 W/m2
01:58 65.1 °F /  18.4 °C 50.9 °F /  10.5 °C 29.8in /  1009.8hPa Calm   1mph /  1.6km/h 60% 0in /  0.0mm 0 W/m2
02:03 65.1 °F /  18.4 °C 50.9 °F /  10.5 °C 29.8in /  1009.5hPa Calm     60% 0in /  0.0mm 0 W/m2
02:08 64.9 °F /  18.3 °C 51.1 °F /  10.6 °C 29.8in /  1009.5hPa Calm   1mph /  1.6km/h 61% 0in /  0.0mm 0 W/m2
02:13 64.9 °F /  18.3 °C 51.1 °F /  10.6 °C 29.8in /  1009.5hPa Calm     61% 0in /  0.0mm 0 W/m2
02:18 64.8 °F /  18.2 °C 51.1 °F /  10.6 °C 29.8in /  1009.5hPa Calm     61% 0in /  0.0mm 0 W/m2
02:23 64.8 °F /  18.2 °C 51.1 °F /  10.6 °C 29.8in /  1009.1hPa Calm     61% 0in /  0.0mm 0 W/m2
02:28 64.6 °F /  18.1 °C 51.3 °F /  10.7 °C 29.8in /  1009.1hPa Calm     62% 0in /  0.0mm 0 W/m2
02:33 64.6 °F /  18.1 °C 51.3 °F /  10.7 °C 29.8in /  1009.1hPa Calm     62% 0in /  0.0mm 0 W/m2
02:38 64.4 °F /  18 °C 51.1 °F /  10.6 °C 29.8in /  1009.1hPa Calm     62% 0in /  0.0mm 0 W/m2
02:43 64.2 °F /  17.9 °C 50.9 °F /  10.5 °C 29.8in /  1009.1hPa Calm     62% 0in /  0.0mm 0 W/m2
02:48 64.2 °F /  17.9 °C 51.4 °F /  10.8 °C 29.8in /  1009.1hPa Calm     63% 0in /  0.0mm 0 W/m2
02:53 64 °F /  17.8 °C 51.3 °F /  10.7 °C 29.8in /  1009.1hPa Calm     63% 0in /  0.0mm 0 W/m2
02:58 64 °F /  17.8 °C 51.3 °F /  10.7 °C 29.8in /  1009.1hPa Calm     63% 0in /  0.0mm 0 W/m2
03:03 63.9 °F /  17.7 °C 51.4 °F /  10.8 °C 29.8in /  1009.1hPa Calm     64% 0in /  0.0mm 0 W/m2
03:08 63.7 °F /  17.6 °C 51.3 °F /  10.7 °C 29.8in /  1009.1hPa Calm     64% 0in /  0.0mm 0 W/m2
03:13 63.5 °F /  17.5 °C 51.1 °F /  10.6 °C 29.8in /  1008.8hPa Calm     64% 0in /  0.0mm 0 W/m2
03:18 63.3 °F /  17.4 °C 51.4 °F /  10.8 °C 29.8in /  1009.1hPa Calm     65% 0in /  0.0mm 0 W/m2
03:23 63.3 °F /  17.4 °C 51.4 °F /  10.8 °C 29.8in /  1009.1hPa Calm     65% 0in /  0.0mm 0 W/m2
03:28 63.3 °F /  17.4 °C 50.9 °F /  10.5 °C 29.8in /  1009.1hPa Calm     64% 0in /  0.0mm 0 W/m2
03:33 63.3 °F /  17.4 °C 50.9 °F /  10.5 °C 29.8in /  1009.1hPa Calm     64% 0in /  0.0mm 0 W/m2
03:38 63.3 °F /  17.4 °C 50.9 °F /  10.5 °C 29.8in /  1008.8hPa Calm     64% 0in /  0.0mm 0 W/m2
03:43 63.3 °F /  17.4 °C 50.9 °F /  10.5 °C 29.8in /  1008.8hPa Calm     64% 0in /  0.0mm 0 W/m2
03:48 63.3 °F /  17.4 °C 50.9 °F /  10.5 °C 29.8in /  1008.8hPa Calm     64% 0in /  0.0mm 0 W/m2
03:53 63.3 °F /  17.4 °C 50.9 °F /  10.5 °C 29.8in /  1008.8hPa Calm     64% 0in /  0.0mm 0 W/m2
03:58 63.1 °F /  17.3 °C 50.7 °F /  10.4 °C 29.8in /  1008.8hPa Calm     64% 0in /  0.0mm 0 W/m2
04:03 63 °F /  17.2 °C 50.5 °F /  10.3 °C 29.8in /  1008.8hPa Calm     64% 0in /  0.0mm 0 W/m2
04:08 63 °F /  17.2 °C 51.1 °F /  10.6 °C 29.8in /  1008.8hPa Calm     65% 0in /  0.0mm 0 W/m2
04:13 63 °F /  17.2 °C 51.1 °F /  10.6 °C 29.8in /  1008.8hPa Calm     65% 0in /  0.0mm 0 W/m2
04:18 62.8 °F /  17.1 °C 50.9 °F /  10.5 °C 29.8in /  1008.8hPa Calm     65% 0in /  0.0mm 0 W/m2
04:23 62.8 °F /  17.1 °C 50.9 °F /  10.5 °C 29.8in /  1008.8hPa Calm     65% 0in /  0.0mm 0 W/m2
04:28 62.8 °F /  17.1 °C 50.9 °F /  10.5 °C 29.8in /  1008.8hPa Calm     65% 0in /  0.0mm 0 W/m2
04:33 62.8 °F /  17.1 °C 50.9 °F /  10.5 °C 29.8in /  1008.8hPa Calm   1mph /  1.6km/h 65% 0in /  0.0mm 0 W/m2
04:38 62.6 °F /  17 °C 51.1 °F /  10.6 °C 29.8in /  1008.8hPa Calm     66% 0in /  0.0mm 0 W/m2
04:43 62.4 °F /  16.9 °C 50.9 °F /  10.5 °C 29.8in /  1008.5hPa Calm     66% 0in /  0.0mm 0 W/m2
04:48 62.2 °F /  16.8 °C 50.4 °F /  10.2 °C 29.8in /  1008.5hPa Calm     65% 0in /  0.0mm 0 W/m2
04:53 62.1 °F /  16.7 °C 50.5 °F /  10.3 °C 29.8in /  1008.5hPa Calm   1mph /  1.6km/h 66% 0in /  0.0mm 0 W/m2
04:58 62.1 °F /  16.7 °C 50.9 °F /  10.5 °C 29.8in /  1008.5hPa Calm   1mph /  1.6km/h 67% 0in /  0.0mm 0 W/m2
05:03 61.9 °F /  16.6 °C 50.7 °F /  10.4 °C 29.8in /  1008.5hPa Calm     67% 0in /  0.0mm 0 W/m2
05:08 61.9 °F /  16.6 °C 50.7 °F /  10.4 °C 29.8in /  1008.5hPa Calm   1mph /  1.6km/h 67% 0in /  0.0mm 0 W/m2
05:13 61.7 °F /  16.5 °C 50.7 °F /  10.4 °C 29.8in /  1008.5hPa East 0.9mph /  1.4km/h 2mph /  3.2km/h 67% 0in /  0.0mm 0 W/m2
05:18 61.7 °F /  16.5 °C 50.7 °F /  10.4 °C 29.8in /  1008.5hPa East 0.9mph /  1.4km/h 2mph /  3.2km/h 67% 0in /  0.0mm 0 W/m2
05:23 61.5 °F /  16.4 °C 50.5 °F /  10.3 °C 29.8in /  1008.5hPa Calm   1mph /  1.6km/h 67% 0in /  0.0mm 0 W/m2
05:28 61.5 °F /  16.4 °C 50.9 °F /  10.5 °C 29.8in /  1008.1hPa Calm     68% 0in /  0.0mm 0 W/m2
05:33 61.5 °F /  16.4 °C 50.5 °F /  10.3 °C 29.8in /  1008.1hPa Calm   2mph /  3.2km/h 67% 0in /  0.0mm 0 W/m2
05:38 61.5 °F /  16.4 °C 50.5 °F /  10.3 °C 29.8in /  1008.1hPa Calm   1mph /  1.6km/h 67% 0in /  0.0mm 0 W/m2
05:43 61.3 °F /  16.3 °C 50.7 °F /  10.4 °C 29.8in /  1008.1hPa East 0.9mph /  1.4km/h 2mph /  3.2km/h 68% 0in /  0.0mm 0 W/m2
05:48 61.3 °F /  16.3 °C 50.7 °F /  10.4 °C 29.8in /  1008.1hPa Calm   1mph /  1.6km/h 68% 0in /  0.0mm 0 W/m2
05:53 61.3 °F /  16.3 °C 50.7 °F /  10.4 °C 29.8in /  1008.5hPa Calm     68% 0in /  0.0mm 0 W/m2
05:58 61.3 °F /  16.3 °C 50.7 °F /  10.4 °C 29.8in /  1008.5hPa Calm   1mph /  1.6km/h 68% 0in /  0.0mm 0 W/m2
06:03 61.3 °F /  16.3 °C 50.7 °F /  10.4 °C 29.8in /  1008.5hPa Calm     68% 0in /  0.0mm 0 W/m2
06:08 61.3 °F /  16.3 °C 50.7 °F /  10.4 °C 29.8in /  1008.5hPa Calm   1mph /  1.6km/h 68% 0in /  0.0mm 0 W/m2
06:13 61.3 °F /  16.3 °C 50.7 °F /  10.4 °C 29.8in /  1008.1hPa East 2mph /  3.2km/h 2mph /  3.2km/h 68% 0in /  0.0mm 0 W/m2
06:18 61.2 °F /  16.2 °C 50.5 °F /  10.3 °C 29.8in /  1008.1hPa Calm   2mph /  3.2km/h 68% 0in /  0.0mm 7 W/m2
06:23 61.2 °F /  16.2 °C 50.5 °F /  10.3 °C 29.8in /  1008.1hPa Calm     68% 0in /  0.0mm 9 W/m2
06:28 61.2 °F /  16.2 °C 50.5 °F /  10.3 °C 29.8in /  1008.1hPa Calm   2mph /  3.2km/h 68% 0in /  0.0mm 7 W/m2
06:33 61.2 °F /  16.2 °C 50.5 °F /  10.3 °C 29.8in /  1008.1hPa East 0.9mph /  1.4km/h 1mph /  1.6km/h 68% 0in /  0.0mm 9 W/m2
06:38 61.3 °F /  16.3 °C 50.4 °F /  10.2 °C 29.8in /  1008.1hPa East 0.9mph /  1.4km/h 2mph /  3.2km/h 67% 0in /  0.0mm 12 W/m2
06:43 61.5 °F /  16.4 °C 50.5 °F /  10.3 °C 29.8in /  1008.1hPa Calm     67% 0in /  0.0mm 18 W/m2
06:48 61.5 °F /  16.4 °C 50 °F /  10 °C 29.8in /  1007.8hPa Calm     66% 0in /  0.0mm 23 W/m2
06:53 61.9 °F /  16.6 °C 50.7 °F /  10.4 °C 29.8in /  1008.1hPa Calm   1mph /  1.6km/h 67% 0in /  0.0mm 28 W/m2
06:58 62.1 °F /  16.7 °C 50.5 °F /  10.3 °C 29.8in /  1008.1hPa Calm     66% 0in /  0.0mm 35 W/m2
07:03 62.2 °F /  16.8 °C 50.7 °F /  10.4 °C 29.8in /  1008.1hPa Calm     66% 0in /  0.0mm 40 W/m2
07:08 62.4 °F /  16.9 °C 50.9 °F /  10.5 °C 29.8in /  1008.1hPa Calm     66% 0in /  0.0mm 44 W/m2
07:13 62.8 °F /  17.1 °C 51.3 °F /  10.7 °C 29.8in /  1008.5hPa Calm     66% 0in /  0.0mm 51 W/m2
07:18 63 °F /  17.2 °C 51.1 °F /  10.6 °C 29.8in /  1008.5hPa Calm     65% 0in /  0.0mm 58 W/m2
07:23 63.1 °F /  17.3 °C 51.3 °F /  10.7 °C 29.8in /  1008.1hPa Calm     65% 0in /  0.0mm 60 W/m2
07:28 63.7 °F /  17.6 °C 51.6 °F /  10.9 °C 29.8in /  1008.1hPa Calm     65% 0in /  0.0mm 62 W/m2
07:33 64 °F /  17.8 °C 51.6 °F /  10.9 °C 29.8in /  1008.1hPa Calm     64% 0in /  0.0mm 63 W/m2
07:38 64.4 °F /  18 °C 52 °F /  11.1 °C 29.8in /  1008.1hPa Calm     64% 0in /  0.0mm 72 W/m2
07:43 64.8 °F /  18.2 °C 51.8 °F /  11 °C 29.8in /  1008.1hPa Calm     63% 0in /  0.0mm 109 W/m2
07:48 65.5 °F /  18.6 °C 51.3 °F /  10.7 °C 29.8in /  1008.5hPa East 0.9mph /  1.4km/h 1mph /  1.6km/h 60% 0in /  0.0mm 79 W/m2
07:53 66 °F /  18.9 °C 52.2 °F /  11.2 °C 29.8in /  1008.1hPa Calm     61% 0in /  0.0mm 146 W/m2
07:58 67.3 °F /  19.6 °C 52 °F /  11.1 °C 29.8in /  1007.8hPa Calm     58% 0in /  0.0mm 149 W/m2
08:03 68.4 °F /  20.2 °C 52 °F /  11.1 °C 29.8in /  1007.5hPa Calm   1mph /  1.6km/h 56% 0in /  0.0mm 116 W/m2
08:08 68.9 °F /  20.5 °C 51.6 °F /  10.9 °C 29.8in /  1007.5hPa Calm   1mph /  1.6km/h 54% 0in /  0.0mm 69 W/m2
08:13 69.1 °F /  20.6 °C 51.8 °F /  11 °C 29.8in /  1007.8hPa West 0.9mph /  1.4km/h 2mph /  3.2km/h 54% 0in /  0.0mm 53 W/m2
08:18 69.1 °F /  20.6 °C 52.7 °F /  11.5 °C 29.8in /  1007.5hPa South 0.9mph /  1.4km/h 2mph /  3.2km/h 56% 0in /  0.0mm 74 W/m2
08:23 69.4 °F /  20.8 °C 52.5 °F /  11.4 °C 29.8in /  1007.5hPa Calm     55% 0in /  0.0mm 60 W/m2
08:28 70 °F /  21.1 °C 52.5 °F /  11.4 °C 29.8in /  1007.5hPa South 0.9mph /  1.4km/h 1mph /  1.6km/h 54% 0in /  0.0mm 58 W/m2
08:33 70.3 °F /  21.3 °C 52.3 °F /  11.3 °C 29.8in /  1007.5hPa Calm     53% 0in /  0.0mm 47 W/m2
08:38 70.7 °F /  21.5 °C 52.7 °F /  11.5 °C 29.7in /  1007.1hPa Calm   2mph /  3.2km/h 53% 0in /  0.0mm 49 W/m2
08:43 71.1 °F /  21.7 °C 53.1 °F /  11.7 °C 29.8in /  1007.5hPa NNE 0.9mph /  1.4km/h 1mph /  1.6km/h 53% 0in /  0.0mm 53 W/m2
08:48 71.6 °F /  22 °C 53.1 °F /  11.7 °C 29.7in /  1007.1hPa NNW 0.9mph /  1.4km/h 3mph /  4.8km/h 52% 0in /  0.0mm 54 W/m2
08:53 72 °F /  22.2 °C 54 °F /  12.2 °C 29.7in /  1007.1hPa Calm   2mph /  3.2km/h 53% 0in /  0.0mm 54 W/m2
08:58 72.5 °F /  22.5 °C 54 °F /  12.2 °C 29.7in /  1007.1hPa North 0.9mph /  1.4km/h 3mph /  4.8km/h 52% 0in /  0.0mm 54 W/m2
09:03 72.7 °F /  22.6 °C 53.4 °F /  11.9 °C 29.8in /  1007.5hPa NE 0.9mph /  1.4km/h 3mph /  4.8km/h 51% 0in /  0.0mm 56 W/m2
09:08 72.9 °F /  22.7 °C 54.1 °F /  12.3 °C 29.8in /  1007.5hPa ESE 2mph /  3.2km/h 2mph /  3.2km/h 52% 0in /  0.0mm 58 W/m2
09:13 72.9 °F /  22.7 °C 54.1 °F /  12.3 °C 29.8in /  1007.5hPa East 2mph /  3.2km/h 3mph /  4.8km/h 52% 0in /  0.0mm 63 W/m2
09:18 72.9 °F /  22.7 °C 54.1 °F /  12.3 °C 29.8in /  1007.5hPa East 0.9mph /  1.4km/h 2mph /  3.2km/h 52% 0in /  0.0mm 72 W/m2
09:23 73 °F /  22.8 °C 53.8 °F /  12.1 °C 29.8in /  1007.5hPa SSE 0.9mph /  1.4km/h 3mph /  4.8km/h 51% 0in /  0.0mm 84 W/m2
09:28 73.2 °F /  22.9 °C 54.5 °F /  12.5 °C 29.8in /  1007.5hPa ESE 2mph /  3.2km/h 3mph /  4.8km/h 52% 0in /  0.0mm 98 W/m2
09:33 73.2 °F /  22.9 °C 54.5 °F /  12.5 °C 29.8in /  1007.5hPa ENE 2.9mph /  4.7km/h 4mph /  6.4km/h 52% 0in /  0.0mm 128 W/m2
09:38 73.6 °F /  23.1 °C 54.9 °F /  12.7 °C 29.8in /  1007.5hPa NNW 2mph /  3.2km/h 4mph /  6.4km/h 52% 0in /  0.0mm 123 W/m2
09:43 73.8 °F /  23.2 °C 55 °F /  12.8 °C 29.8in /  1007.5hPa SE 0.9mph /  1.4km/h 2mph /  3.2km/h 52% 0in /  0.0mm 135 W/m2
09:48 74.1 °F /  23.4 °C 54.9 °F /  12.7 °C 29.8in /  1007.5hPa ESE 2.9mph /  4.7km/h 4mph /  6.4km/h 51% 0in /  0.0mm 156 W/m2
09:53 74.7 °F /  23.7 °C 55.4 °F /  13 °C 29.8in /  1007.5hPa NNE 0.9mph /  1.4km/h 3mph /  4.8km/h 51% 0in /  0.0mm 174 W/m2
09:58 74.8 °F /  23.8 °C 55 °F /  12.8 °C 29.7in /  1007.1hPa ESE 0.9mph /  1.4km/h 4mph /  6.4km/h 50% 0in /  0.0mm 186 W/m2
10:03 75 °F /  23.9 °C 55.6 °F /  13.1 °C 29.7in /  1007.1hPa SE 0.9mph /  1.4km/h 2mph /  3.2km/h 51% 0in /  0.0mm 209 W/m2
10:08 75.4 °F /  24.1 °C 55.4 °F /  13 °C 29.7in /  1007.1hPa Calm   2mph /  3.2km/h 50% 0in /  0.0mm 257 W/m2
10:13 75.6 °F /  24.2 °C 55.6 °F /  13.1 °C 29.7in /  1007.1hPa East 0.9mph /  1.4km/h 3mph /  4.8km/h 50% 0in /  0.0mm 285 W/m2
10:18 75.7 °F /  24.3 °C 55.8 °F /  13.2 °C 29.7in /  1007.1hPa East 2.9mph /  4.7km/h 4mph /  6.4km/h 50% 0in /  0.0mm 397 W/m2
10:23 76.3 °F /  24.6 °C 55.8 °F /  13.2 °C 29.7in /  1007.1hPa NE 2mph /  3.2km/h 4mph /  6.4km/h 49% 0in /  0.0mm 545 W/m2
10:28 76.5 °F /  24.7 °C 55.4 °F /  13 °C 29.7in /  1007.1hPa SE 2mph /  3.2km/h 4mph /  6.4km/h 48% 0in /  0.0mm 392 W/m2
10:33 76.8 °F /  24.9 °C 55.6 °F /  13.1 °C 29.7in /  1007.1hPa SE 2mph /  3.2km/h 2mph /  3.2km/h 48% 0in /  0.0mm 327 W/m2
10:38 77.2 °F /  25.1 °C 55.4 °F /  13 °C 29.8in /  1007.5hPa ENE 2mph /  3.2km/h 4mph /  6.4km/h 47% 0in /  0.0mm 589 W/m2
10:43 77.4 °F /  25.2 °C 55.6 °F /  13.1 °C 29.8in /  1007.5hPa Calm   4mph /  6.4km/h 47% 0in /  0.0mm 353 W/m2
10:48 77.7 °F /  25.4 °C 55.9 °F /  13.3 °C 29.8in /  1007.5hPa East 2mph /  3.2km/h 3mph /  4.8km/h 47% 0in /  0.0mm 612 W/m2
10:53 78.3 °F /  25.7 °C 55.8 °F /  13.2 °C 29.7in /  1007.1hPa NE 0.9mph /  1.4km/h 4mph /  6.4km/h 46% 0in /  0.0mm 450 W/m2
10:58 78.6 °F /  25.9 °C 56.1 °F /  13.4 °C 29.7in /  1007.1hPa ENE 2mph /  3.2km/h 2mph /  3.2km/h 46% 0in /  0.0mm 585 W/m2
11:03 79.2 °F /  26.2 °C 55.9 °F /  13.3 °C 29.7in /  1007.1hPa ESE 0.9mph /  1.4km/h 7mph /  11.3km/h 45% 0in /  0.0mm 452 W/m2
11:08 79.3 °F /  26.3 °C 56.1 °F /  13.4 °C 29.7in /  1006.8hPa Calm   3mph /  4.8km/h 45% 0in /  0.0mm 640 W/m2
11:13 79.5 °F /  26.4 °C 56.3 °F /  13.5 °C 29.7in /  1006.8hPa SE 2.9mph /  4.7km/h 4mph /  6.4km/h 45% 0in /  0.0mm 450 W/m2
11:19 79.9 °F /  26.6 °C 55.9 °F /  13.3 °C 29.7in /  1006.8hPa NNW 2mph /  3.2km/h 3mph /  4.8km/h 44% 0in /  0.0mm 413 W/m2
11:24 80.2 °F /  26.8 °C 56.3 °F /  13.5 °C 29.7in /  1006.4hPa SE 2mph /  3.2km/h 4mph /  6.4km/h 44% 0in /  0.0mm 466 W/m2
11:29 80.6 °F /  27 °C 56.1 °F /  13.4 °C 29.7in /  1006.4hPa ENE 0.9mph /  1.4km/h 3mph /  4.8km/h 43% 0in /  0.0mm 378 W/m2
11:34 81 °F /  27.2 °C 56.3 °F /  13.5 °C 29.7in /  1006.4hPa ENE 0.9mph /  1.4km/h 4mph /  6.4km/h 43% 0in /  0.0mm 381 W/m2
Juneau County Weather
Compliments of Weather Underground - 2 mb